createdAt,value
2018-11-13T00:00:03.832Z,28.57
2018-11-13T00:02:45.653Z,33.15
2018-11-13T00:05:28.060Z,34.15
2018-11-13T00:08:10.183Z,34.47
2018-11-13T00:10:52.280Z,32.78
2018-11-13T00:13:33.900Z,32.10
2018-11-13T00:16:15.571Z,32.60
2018-11-13T00:18:57.227Z,31.42
2018-11-13T00:21:39.153Z,30.27
2018-11-13T00:24:20.898Z,27.75
2018-11-13T00:27:02.280Z,36.53
2018-11-13T00:29:44.648Z,31.93
2018-11-13T00:32:26.484Z,30.37
2018-11-13T00:35:08.287Z,32.25
2018-11-13T00:37:51.267Z,35.52
2018-11-13T00:40:33.315Z,38.50
2018-11-13T00:43:15.404Z,34.73
2018-11-13T00:45:57.204Z,35.80
2018-11-13T00:48:39.080Z,34.35
2018-11-13T00:51:20.899Z,34.37
2018-11-13T00:54:03.663Z,33.67
2018-11-13T00:56:45.805Z,35.08
2018-11-13T00:59:27.940Z,34.30
2018-11-13T01:02:10.175Z,31.93
2018-11-13T01:04:51.891Z,35.15
2018-11-13T01:07:34.331Z,35.13
2018-11-13T01:10:17.784Z,36.33
2018-11-13T01:13:00.343Z,37.05
2018-11-13T01:15:42.032Z,32.95
2018-11-13T01:18:24.236Z,34.98
2018-11-13T01:21:06.702Z,33.88
2018-11-13T01:23:48.692Z,35.50
2018-11-13T01:26:30.639Z,34.23
2018-11-13T01:29:12.406Z,35.35
2018-11-13T01:31:55.363Z,34.60
2018-11-13T01:34:37.299Z,37.67
2018-11-13T01:37:19.293Z,37.15
2018-11-13T01:40:01.243Z,34.53
2018-11-13T01:42:44.577Z,32.30
2018-11-13T01:45:26.779Z,34.50
2018-11-13T01:48:09.453Z,33.92
2018-11-13T01:50:51.160Z,33.40
2018-11-13T01:53:33.487Z,33.75
2018-11-13T01:56:15.687Z,36.90
2018-11-13T01:58:58.024Z,35.25
2018-11-13T02:01:39.794Z,34.85
2018-11-13T02:04:22.200Z,36.23
2018-11-13T02:07:04.403Z,33.80
2018-11-13T02:09:46.272Z,33.80
2018-11-13T02:12:28.663Z,33.40
2018-11-13T02:15:10.684Z,32.78
2018-11-13T02:17:52.625Z,34.80
2018-11-13T02:20:34.293Z,36.83
2018-11-13T02:23:16.088Z,34.78
2018-11-13T02:25:58.038Z,35.03
2018-11-13T02:28:41.293Z,33.33
2018-11-13T02:31:23.767Z,33.48
2018-11-13T02:34:05.751Z,35.85
2018-11-13T02:36:47.523Z,32.17
2018-11-13T02:39:29.324Z,34.88
2018-11-13T02:42:11.120Z,34.70
2018-11-13T02:44:52.900Z,32.75
2018-11-13T02:47:34.656Z,35.90
2018-11-13T02:50:19.060Z,37.08
2018-11-13T02:53:01.044Z,34.67
2018-11-13T02:55:43.163Z,37.65
2018-11-13T02:58:25.432Z,36.58
2018-11-13T03:01:07.865Z,33.65
2018-11-13T03:03:49.659Z,36.98
2018-11-13T03:06:31.397Z,34.00
2018-11-13T03:09:14.751Z,35.38
2018-11-13T03:11:56.856Z,35.08
2018-11-13T03:14:38.880Z,33.05
2018-11-13T03:17:21.396Z,33.10
2018-11-13T03:20:03.290Z,31.93
2018-11-13T03:22:45.883Z,32.28
2018-11-13T03:25:27.954Z,35.23
2018-11-13T03:28:09.782Z,29.85
2018-11-13T03:30:52.108Z,30.25
2018-11-13T03:33:35.459Z,29.72
2018-11-13T03:36:18.261Z,31.73
2018-11-13T03:39:01.086Z,30.08
2018-11-13T03:41:43.050Z,28.27
2018-11-13T03:44:25.035Z,28.92
2018-11-13T03:47:07.447Z,32.15
2018-11-13T03:49:49.248Z,30.57
2018-11-13T03:52:31.701Z,30.32
2018-11-13T03:55:14.258Z,27.70
2018-11-13T03:57:56.225Z,29.30
2018-11-13T04:00:38.562Z,30.30
2018-11-13T04:03:20.171Z,28.27
2018-11-13T04:06:01.851Z,32.55
2018-11-13T04:08:43.913Z,33.25
2018-11-13T04:11:25.998Z,32.45
2018-11-13T04:14:08.751Z,31.23
2018-11-13T04:16:50.526Z,31.30
2018-11-13T04:19:32.648Z,30.08
2018-11-13T04:22:14.765Z,33.65
2018-11-13T04:24:57.160Z,35.08
2018-11-13T04:27:39.625Z,31.42
2018-11-13T04:30:21.769Z,30.27
2018-11-13T04:33:04.184Z,34.55
2018-11-13T04:35:46.296Z,31.07
2018-11-13T04:38:28.496Z,35.60
2018-11-13T04:41:10.826Z,34.05
2018-11-13T04:43:52.584Z,35.95
2018-11-13T04:46:34.281Z,33.85
2018-11-13T04:49:15.875Z,41.42
2018-11-13T04:51:57.876Z,37.38
2018-11-13T04:54:39.468Z,34.08
2018-11-13T04:57:21.580Z,37.15
2018-11-13T05:00:04.092Z,37.40
2018-11-13T05:02:46.840Z,39.25
2018-11-13T05:05:28.799Z,38.58
2018-11-13T05:08:10.807Z,34.90
2018-11-13T05:10:52.551Z,37.83
2018-11-13T05:13:34.863Z,39.35
2018-11-13T05:16:17.732Z,38.88
2018-11-13T05:18:59.888Z,38.40
2018-11-13T05:21:41.823Z,38.42
2018-11-13T05:24:24.448Z,36.88
2018-11-13T05:27:06.572Z,39.58
2018-11-13T05:29:48.058Z,39.92
2018-11-13T05:32:30.171Z,34.98
2018-11-13T05:35:13.244Z,44.93
2018-11-13T05:37:55.095Z,37.03
2018-11-13T05:40:37.291Z,38.02
2018-11-13T05:43:19.089Z,39.05
2018-11-13T05:46:01.344Z,40.95
2018-11-13T05:48:43.263Z,39.70
2018-11-13T05:51:24.966Z,40.83
2018-11-13T05:54:06.862Z,40.08
2018-11-13T05:56:48.599Z,36.03
2018-11-13T05:59:30.667Z,37.95
2018-11-13T06:02:12.871Z,43.75
2018-11-13T06:04:55.203Z,36.83
2018-11-13T06:07:36.895Z,41.02
2018-11-13T06:10:19.348Z,35.95
2018-11-13T06:13:01.787Z,37.23
2018-11-13T06:15:43.901Z,38.15
2018-11-13T06:18:26.095Z,34.40
2018-11-13T06:21:08.741Z,37.90
2018-11-13T06:23:50.732Z,33.88
2018-11-13T06:26:33.274Z,35.25
2018-11-13T06:29:15.394Z,36.98
2018-11-13T06:31:58.167Z,38.15
2018-11-13T06:34:40.394Z,35.68
2018-11-13T06:37:22.373Z,38.02
2018-11-13T06:40:04.944Z,34.63
2018-11-13T06:42:47.389Z,36.40
2018-11-13T06:45:29.922Z,37.88
2018-11-13T06:48:11.691Z,37.60
2018-11-13T06:50:54.053Z,39.90
2018-11-13T06:53:53.021Z,34.60
2018-11-13T06:56:35.330Z,35.55
2018-11-13T06:59:18.163Z,36.28
2018-11-13T07:02:00.437Z,37.58
2018-11-13T07:04:42.326Z,35.68
2018-11-13T07:07:24.194Z,37.83
2018-11-13T07:10:07.619Z,38.17
2018-11-13T07:12:50.665Z,37.75
2018-11-13T07:15:33.100Z,37.08
2018-11-13T07:18:15.208Z,39.70
2018-11-13T07:20:58.512Z,35.68
2018-11-13T07:23:40.723Z,36.60
2018-11-13T07:26:22.816Z,36.70
2018-11-13T07:29:04.911Z,37.20
2018-11-13T07:31:47.191Z,38.85
2018-11-13T07:34:28.934Z,33.48
2018-11-13T07:37:11.116Z,33.02
2018-11-13T07:39:52.949Z,34.40
2018-11-13T07:42:35.008Z,33.48
2018-11-13T07:45:17.110Z,35.00
2018-11-13T07:47:59.322Z,33.10
2018-11-13T07:50:41.722Z,33.53
2018-11-13T07:53:23.588Z,32.60
2018-11-13T07:56:05.713Z,30.00
2018-11-13T07:58:47.589Z,32.35
2018-11-13T08:01:30.089Z,29.30
2018-11-13T08:04:12.298Z,29.63
2018-11-13T08:06:54.163Z,30.32
2018-11-13T08:09:36.040Z,32.60
2018-11-13T08:12:17.817Z,30.77
2018-11-13T08:15:00.274Z,30.82
2018-11-13T08:17:42.820Z,30.80
2018-11-13T08:20:25.199Z,31.50
2018-11-13T08:23:07.299Z,31.27
2018-11-13T08:25:49.189Z,33.15
2018-11-13T08:28:30.982Z,29.77
2018-11-13T08:31:13.263Z,31.73
2018-11-13T08:33:56.244Z,31.87
2018-11-13T08:36:37.860Z,30.25
2018-11-13T08:39:19.901Z,33.28
2018-11-13T08:42:02.019Z,29.15
2018-11-13T08:44:44.289Z,28.73
2018-11-13T08:47:26.452Z,33.92
2018-11-13T08:50:08.325Z,32.08
2018-11-13T08:52:50.188Z,31.45
2018-11-13T08:55:32.204Z,34.65
2018-11-13T08:58:14.050Z,27.45
2018-11-13T09:00:56.900Z,31.37
2018-11-13T09:03:39.090Z,26.70
2018-11-13T09:06:21.255Z,26.70
2018-11-13T09:09:03.449Z,27.15
2018-11-13T09:11:45.623Z,28.38
2018-11-13T09:14:27.768Z,32.90
2018-11-13T09:17:09.938Z,33.20
2018-11-13T09:19:51.608Z,43.53
2018-11-13T09:22:33.004Z,35.00
2018-11-13T09:25:18.792Z,35.30
2018-11-13T09:28:00.827Z,31.25
2018-11-13T09:30:42.816Z,34.57
2018-11-13T09:33:25.304Z,33.65
2018-11-13T09:36:07.681Z,26.20
2018-11-13T09:38:49.402Z,32.00
2018-11-13T09:41:31.316Z,27.07
2018-11-13T09:44:12.764Z,32.20
2018-11-13T09:46:54.264Z,34.40
2018-11-13T09:49:36.011Z,35.97
2018-11-13T09:52:18.356Z,35.13
2018-11-13T09:55:00.140Z,34.23
2018-11-13T09:57:42.181Z,27.02
2018-11-13T10:00:25.609Z,14.63
2018-11-13T10:03:08.332Z,21.80
2018-11-13T10:05:49.698Z,17.80
2018-11-13T10:08:35.116Z,20.33
2018-11-13T10:11:20.175Z,17.03
2018-11-13T10:14:01.785Z,12.03
2018-11-13T10:16:46.366Z,10.68
2018-11-13T10:19:29.800Z,10.70
2018-11-13T10:22:14.362Z,11.10
2018-11-13T10:25:02.100Z,13.37
2018-11-13T10:27:46.203Z,12.33
2018-11-13T10:30:28.550Z,10.53
2018-11-13T10:33:11.267Z,10.80
2018-11-13T10:35:55.175Z,9.77
2018-11-13T10:38:38.524Z,13.50
2018-11-13T10:41:22.718Z,14.33
2018-11-13T10:44:05.756Z,11.17
2018-11-13T10:46:47.611Z,11.60
2018-11-13T10:49:29.292Z,12.83
2018-11-13T10:52:11.071Z,14.77
2018-11-13T10:54:52.867Z,15.10
2018-11-13T10:57:34.778Z,15.88
2018-11-13T11:00:22.860Z,15.00
2018-11-13T11:03:06.522Z,21.97
2018-11-13T11:05:48.919Z,36.03
2018-11-13T11:08:30.747Z,31.73
2018-11-13T11:11:12.542Z,36.67
2018-11-13T11:13:54.739Z,31.20
2018-11-13T11:16:36.961Z,35.47
2018-11-13T11:19:18.375Z,35.90
2018-11-13T11:22:00.736Z,23.50
2018-11-13T11:24:42.118Z,34.40
2018-11-13T11:27:23.914Z,21.77
2018-11-13T11:30:06.857Z,36.77
2018-11-13T11:32:48.238Z,28.80
2018-11-13T11:35:29.829Z,36.33
2018-11-13T11:38:11.901Z,36.77
2018-11-13T11:40:53.311Z,30.43
2018-11-13T11:43:36.652Z,24.40
2018-11-13T11:46:18.621Z,23.53
2018-11-13T11:49:00.177Z,22.73
2018-11-13T11:51:41.546Z,30.20
2018-11-13T11:54:23.380Z,33.93
2018-11-13T11:57:05.367Z,30.57
2018-11-13T11:59:46.877Z,36.17
2018-11-13T12:02:28.727Z,36.43
2018-11-13T12:05:10.445Z,16.07
2018-11-13T12:07:52.213Z,16.43
2018-11-13T12:10:34.046Z,13.00
2018-11-13T12:13:16.198Z,10.07
2018-11-13T12:15:58.027Z,11.03
2018-11-13T12:18:39.900Z,11.50
2018-11-13T12:21:21.825Z,21.77
2018-11-13T12:24:03.694Z,16.40
2018-11-13T12:26:45.726Z,13.87
2018-11-13T12:29:27.535Z,10.97
2018-11-13T12:32:08.790Z,17.73
2018-11-13T12:34:50.626Z,11.73
2018-11-13T12:37:31.988Z,10.33
2018-11-13T12:40:15.987Z,14.33
2018-11-13T12:42:57.826Z,13.40
2018-11-13T12:45:40.035Z,10.37
2018-11-13T12:48:21.984Z,10.23
2018-11-13T12:51:05.023Z,9.97
2018-11-13T12:53:46.532Z,8.40
2018-11-13T12:56:28.422Z,10.00
2018-11-13T12:59:10.304Z,10.93
2018-11-13T13:01:53.379Z,10.27
2018-11-13T13:04:34.669Z,11.93
2018-11-13T13:07:16.533Z,11.20
2018-11-13T13:09:57.987Z,9.17
2018-11-13T13:12:39.858Z,9.27
2018-11-13T13:15:21.863Z,6.87
2018-11-13T13:18:03.244Z,7.50
2018-11-13T13:20:44.516Z,8.37
2018-11-13T13:23:26.221Z,6.30
2018-11-13T13:26:08.349Z,6.93
2018-11-13T13:28:50.543Z,6.07
2018-11-13T13:31:32.654Z,7.57
2018-11-13T13:34:14.849Z,6.47
2018-11-13T13:36:56.943Z,7.27
2018-11-13T13:39:38.677Z,5.80
2018-11-13T13:42:20.063Z,7.63
2018-11-13T13:45:01.526Z,8.10
2018-11-13T13:47:43.276Z,7.60
2018-11-13T13:50:24.700Z,5.70
2018-11-13T13:53:06.926Z,6.93
2018-11-13T13:55:49.425Z,5.80
2018-11-13T13:58:31.278Z,6.20
2018-11-13T14:01:12.958Z,7.83
2018-11-13T14:03:54.406Z,6.83
2018-11-13T14:06:35.941Z,6.97
2018-11-13T14:09:17.733Z,6.77
2018-11-13T14:11:59.516Z,9.87
2018-11-13T14:14:41.910Z,6.27
2018-11-13T14:17:23.867Z,6.97
2018-11-13T14:20:07.992Z,7.63
2018-11-13T14:22:49.946Z,6.23
2018-11-13T14:25:32.000Z,6.50
2018-11-13T14:28:13.802Z,7.07
2018-11-13T14:30:55.209Z,7.27
2018-11-13T14:33:36.812Z,5.53
2018-11-13T14:36:18.392Z,6.93
2018-11-13T14:39:00.054Z,7.30
2018-11-13T14:41:41.662Z,9.13
2018-11-13T14:44:23.412Z,9.53
2018-11-13T14:47:05.034Z,7.70
2018-11-13T14:49:46.921Z,10.48
2018-11-13T14:52:28.704Z,6.13
2018-11-13T14:55:14.303Z,6.70
2018-11-13T14:57:56.694Z,6.57
2018-11-13T15:00:38.735Z,6.83
2018-11-13T15:03:20.812Z,6.00
2018-11-13T15:06:02.197Z,7.23
2018-11-13T15:08:43.540Z,8.60
2018-11-13T15:11:26.673Z,6.40
2018-11-13T15:14:08.403Z,6.90
2018-11-13T15:16:50.420Z,5.63
2018-11-13T15:19:32.371Z,5.37
2018-11-13T15:22:13.943Z,6.33
2018-11-13T15:24:56.230Z,6.43
2018-11-13T15:27:38.349Z,5.67
2018-11-13T15:30:23.120Z,6.57
2018-11-13T15:33:16.203Z,5.57
2018-11-13T15:35:57.997Z,4.67
2018-11-13T15:38:39.810Z,6.57
2018-11-13T15:41:23.773Z,6.93
2018-11-13T15:44:05.596Z,4.03
2018-11-13T15:46:48.215Z,4.53
2018-11-13T15:49:32.072Z,3.60
2018-11-13T15:52:16.349Z,3.97
2018-11-13T15:54:59.616Z,3.73
2018-11-13T15:57:43.300Z,3.60
2018-11-13T16:00:29.122Z,4.63
2018-11-13T16:03:21.807Z,3.60
2018-11-13T16:06:03.585Z,5.93
2018-11-13T16:08:45.920Z,5.83
2018-11-13T16:11:28.311Z,71.60
2018-11-13T16:14:10.179Z,9.88
2018-11-13T16:16:51.696Z,7.47
2018-11-13T16:19:33.707Z,12.10
2018-11-13T16:22:16.277Z,30.40
2018-11-13T16:24:58.371Z,16.00
2018-11-13T16:27:40.834Z,7.25
2018-11-13T16:30:24.814Z,7.13
2018-11-13T16:33:07.683Z,8.30
2018-11-13T16:35:49.751Z,9.73
2018-11-13T16:38:32.030Z,8.95
2018-11-13T16:41:14.200Z,9.48
2018-11-13T16:43:56.073Z,8.65
2018-11-13T16:46:37.759Z,7.15
2018-11-13T16:49:19.787Z,7.87
2018-11-13T16:52:02.422Z,8.53
2018-11-13T16:54:50.395Z,6.97
2018-11-13T16:57:32.641Z,9.30
2018-11-13T17:00:14.705Z,4.57
2018-11-13T17:02:56.907Z,6.47
2018-11-13T17:05:39.547Z,5.87
2018-11-13T17:08:21.594Z,5.13
2018-11-13T17:11:04.027Z,4.40
2018-11-13T17:13:45.635Z,3.47
2018-11-13T17:16:27.540Z,3.83
2018-11-13T17:19:09.297Z,3.73
2018-11-13T17:21:51.856Z,4.50
2018-11-13T17:24:33.781Z,4.90
2018-11-13T17:27:15.546Z,3.60
2018-11-13T17:29:57.030Z,4.30
2018-11-13T17:32:39.998Z,4.93
2018-11-13T17:35:23.153Z,5.33
2018-11-13T17:38:04.788Z,3.60
2018-11-13T17:40:46.748Z,3.03
2018-11-13T17:43:29.565Z,3.23
2018-11-13T17:46:11.727Z,3.60
2018-11-13T17:48:53.302Z,5.00
2018-11-13T17:51:35.252Z,3.37
2018-11-13T17:54:16.913Z,4.03
2018-11-13T17:56:59.147Z,3.03
2018-11-13T17:59:41.036Z,3.03
2018-11-13T18:02:23.555Z,3.10
2018-11-13T18:05:06.613Z,4.97
2018-11-13T18:07:49.189Z,4.70
2018-11-13T18:10:31.864Z,3.97
2018-11-13T18:13:13.910Z,4.67
2018-11-13T18:15:55.503Z,5.27
2018-11-13T18:18:39.094Z,5.70
2018-11-13T18:21:20.953Z,4.13
2018-11-13T18:24:02.682Z,3.13
2018-11-13T18:26:44.700Z,4.92
2018-11-13T18:29:26.391Z,3.27
2018-11-13T18:32:08.487Z,3.47
2018-11-13T18:34:50.689Z,3.02
2018-11-13T18:37:39.303Z,2.63
2018-11-13T18:40:22.202Z,2.65
2018-11-13T18:43:04.726Z,2.60
2018-11-13T18:45:46.658Z,4.12
2018-11-13T18:48:28.344Z,5.10
2018-11-13T18:51:09.880Z,1.87
2018-11-13T18:53:52.154Z,3.57
2018-11-13T18:56:34.564Z,2.07
2018-11-13T18:59:16.009Z,2.23
2018-11-13T19:01:57.843Z,2.40
2018-11-13T19:04:39.681Z,2.00
2018-11-13T19:07:22.467Z,4.53
2018-11-13T19:10:05.916Z,2.10
2018-11-13T19:12:47.844Z,3.57
2018-11-13T19:15:32.042Z,2.77
2018-11-13T19:18:14.760Z,2.63
2018-11-13T19:20:56.097Z,3.10
2018-11-13T19:23:37.985Z,2.50
2018-11-13T19:26:21.772Z,3.20
2018-11-13T19:29:03.277Z,2.07
2018-11-13T19:31:45.277Z,2.73
2018-11-13T19:34:27.419Z,5.07
2018-11-13T19:37:09.170Z,3.13
2018-11-13T19:39:50.847Z,2.13
2018-11-13T19:42:33.517Z,1.87
2018-11-13T19:45:15.803Z,2.80
2018-11-13T19:47:57.456Z,2.80
2018-11-13T19:50:39.395Z,3.50
2018-11-13T19:53:21.382Z,3.77
2018-11-13T19:56:03.946Z,3.43
2018-11-13T19:58:46.161Z,2.07
2018-11-13T20:01:28.151Z,4.87
2018-11-13T20:04:10.195Z,2.50
2018-11-13T20:06:52.304Z,1.80
2018-11-13T20:09:34.118Z,5.67
2018-11-13T20:12:15.989Z,5.42
2018-11-13T20:14:57.701Z,2.07
2018-11-13T20:17:39.283Z,2.53
2018-11-13T20:20:24.651Z,2.50
2018-11-13T20:23:07.936Z,3.20
2018-11-13T20:25:50.241Z,4.72
2018-11-13T20:28:31.804Z,1.83
2018-11-13T20:31:13.383Z,2.50
2018-11-13T20:33:55.768Z,2.30
2018-11-13T20:36:37.922Z,3.42
2018-11-13T20:39:20.045Z,2.58
2018-11-13T20:42:02.317Z,4.75
2018-11-13T20:44:44.375Z,2.83
2018-11-13T20:47:26.677Z,4.08
2018-11-13T20:50:11.696Z,2.80
2018-11-13T20:52:53.833Z,3.62
2018-11-13T20:55:36.802Z,4.90
2018-11-13T20:58:19.006Z,4.10
2018-11-13T21:01:00.807Z,5.22
2018-11-13T21:03:43.166Z,7.37
2018-11-13T21:06:25.480Z,4.95
2018-11-13T21:09:09.003Z,5.45
2018-11-13T21:11:51.675Z,6.47
2018-11-13T21:14:34.844Z,4.28
2018-11-13T21:17:16.941Z,4.40
2018-11-13T21:19:58.892Z,5.90
2018-11-13T21:22:41.205Z,5.83
2018-11-13T21:25:24.523Z,6.87
2018-11-13T21:28:06.655Z,4.62
2018-11-13T21:30:48.681Z,5.03
2018-11-13T21:33:30.529Z,4.97
2018-11-13T21:36:13.555Z,4.60
2018-11-13T21:38:55.948Z,3.83
2018-11-13T21:41:38.595Z,5.37
2018-11-13T21:44:20.640Z,5.37
2018-11-13T21:47:02.613Z,6.15
2018-11-13T21:49:44.300Z,5.62
2018-11-13T21:52:26.932Z,3.95
2018-11-13T21:55:11.383Z,5.20
2018-11-13T21:57:53.781Z,4.72
2018-11-13T22:00:37.262Z,5.60
2018-11-13T22:03:19.369Z,4.45
2018-11-13T22:06:01.201Z,7.12
2018-11-13T22:08:42.946Z,4.35
2018-11-13T22:11:25.161Z,4.25
2018-11-13T22:14:07.350Z,4.45
2018-11-13T22:16:49.616Z,5.12
2018-11-13T22:19:31.485Z,3.62
2018-11-13T22:22:13.479Z,3.60
2018-11-13T22:24:55.212Z,4.92
2018-11-13T22:27:37.797Z,4.65
2018-11-13T22:30:21.131Z,4.03
2018-11-13T22:33:03.625Z,3.37
2018-11-13T22:35:45.505Z,5.12
2018-11-13T22:38:27.589Z,5.10
2018-11-13T22:41:09.381Z,6.42
2018-11-13T22:43:51.570Z,4.90
2018-11-13T22:46:34.261Z,4.65
2018-11-13T22:49:15.999Z,4.42
2018-11-13T22:51:58.326Z,6.33
2018-11-13T22:54:40.092Z,7.75
2018-11-13T22:57:22.202Z,5.45
2018-11-13T23:00:07.844Z,6.33
2018-11-13T23:02:51.204Z,6.05
2018-11-13T23:05:33.310Z,8.33
2018-11-13T23:08:16.437Z,4.53
2018-11-13T23:11:02.361Z,7.10
2018-11-13T23:13:44.195Z,7.50
2018-11-13T23:16:26.364Z,6.85
2018-11-13T23:19:08.651Z,6.53
2018-11-13T23:21:50.555Z,8.13
2018-11-13T23:24:32.285Z,5.90
2018-11-13T23:27:14.017Z,5.37
2018-11-13T23:29:55.787Z,7.17
2018-11-13T23:32:37.511Z,5.08
2018-11-13T23:35:19.878Z,7.15
2018-11-13T23:38:02.413Z,7.20
2018-11-13T23:40:44.211Z,7.87
2018-11-13T23:43:25.959Z,6.30
2018-11-13T23:46:08.018Z,7.95
2018-11-13T23:48:49.692Z,4.60
2018-11-13T23:51:32.143Z,5.40
2018-11-13T23:54:13.891Z,6.47
2018-11-13T23:56:55.995Z,7.85
2018-11-13T23:59:37.724Z,5.47
